createdAt,value
2018-05-10T00:01:55.441Z,6.43
2018-05-10T00:04:22.886Z,7.10
2018-05-10T00:06:50.306Z,6.30
2018-05-10T00:09:17.763Z,6.37
2018-05-10T00:11:45.186Z,7.00
2018-05-10T00:14:12.597Z,5.43
2018-05-10T00:16:40.030Z,6.03
2018-05-10T00:19:07.441Z,5.53
2018-05-10T00:21:34.881Z,5.87
2018-05-10T00:24:03.237Z,5.40
2018-05-10T00:26:30.683Z,5.67
2018-05-10T00:28:58.093Z,5.57
2018-05-10T00:31:25.533Z,6.13
2018-05-10T00:33:52.958Z,6.20
2018-05-10T00:36:20.401Z,7.10
2018-05-10T00:38:47.818Z,6.13
2018-05-10T00:41:15.255Z,7.63
2018-05-10T00:43:42.679Z,7.07
2018-05-10T00:46:10.118Z,6.17
2018-05-10T00:48:37.533Z,6.73
2018-05-10T00:51:04.956Z,6.60
2018-05-10T00:53:32.378Z,7.03
2018-05-10T00:55:59.799Z,7.53
2018-05-10T00:58:27.241Z,7.10
2018-05-10T01:00:54.655Z,7.57
2018-05-10T01:03:22.090Z,6.67
2018-05-10T01:05:49.507Z,7.50
2018-05-10T01:08:16.949Z,6.87
2018-05-10T01:10:44.357Z,6.60
2018-05-10T01:13:11.847Z,7.23
2018-05-10T01:15:39.213Z,7.70
2018-05-10T01:18:06.655Z,7.10
2018-05-10T01:20:34.073Z,7.23
2018-05-10T01:23:01.521Z,8.63
2018-05-10T01:25:28.938Z,7.53
2018-05-10T01:27:57.346Z,6.27
2018-05-10T01:30:24.757Z,8.10
2018-05-10T01:32:52.194Z,7.23
2018-05-10T01:35:31.236Z,7.57
2018-05-10T01:37:58.669Z,7.17
2018-05-10T01:40:26.090Z,7.57
2018-05-10T01:42:53.538Z,7.70
2018-05-10T01:45:20.950Z,7.13
2018-05-10T01:47:48.367Z,7.50
2018-05-10T01:50:15.815Z,7.00
2018-05-10T01:52:45.142Z,7.83
2018-05-10T01:55:12.586Z,7.37
2018-05-10T01:57:39.997Z,7.77
2018-05-10T02:00:08.406Z,8.33
2018-05-10T02:02:36.760Z,7.50
2018-05-10T02:05:04.194Z,7.47
2018-05-10T02:07:31.616Z,7.93
2018-05-10T02:09:59.061Z,8.67
2018-05-10T02:12:26.478Z,8.17
2018-05-10T02:14:54.895Z,7.30
2018-05-10T02:17:22.301Z,7.77
2018-05-10T02:19:49.746Z,7.47
2018-05-10T02:22:17.158Z,7.17
2018-05-10T02:24:44.592Z,8.10
2018-05-10T02:27:12.010Z,9.37
2018-05-10T02:29:39.498Z,8.00
2018-05-10T02:32:06.880Z,8.50
2018-05-10T02:34:34.345Z,8.80
2018-05-10T02:37:01.761Z,7.93
2018-05-10T02:39:29.186Z,7.40
2018-05-10T02:41:56.637Z,7.80
2018-05-10T02:44:24.050Z,6.83
2018-05-10T02:46:51.482Z,7.57
2018-05-10T02:49:18.910Z,8.20
2018-05-10T02:51:46.347Z,8.13
2018-05-10T02:54:14.658Z,7.80
2018-05-10T02:56:43.002Z,8.00
2018-05-10T02:59:10.454Z,7.70
2018-05-10T03:01:39.861Z,7.40
2018-05-10T03:04:07.285Z,7.50
2018-05-10T03:06:34.725Z,7.33
2018-05-10T03:09:02.174Z,7.70
2018-05-10T03:11:29.618Z,8.03
2018-05-10T03:13:57.040Z,8.00
2018-05-10T03:16:25.418Z,8.60
2018-05-10T03:18:52.834Z,8.57
2018-05-10T03:21:20.277Z,8.70
2018-05-10T03:23:49.693Z,8.93
2018-05-10T03:26:17.141Z,8.60
2018-05-10T03:28:47.689Z,7.80
2018-05-10T03:31:15.158Z,9.20
2018-05-10T03:33:45.754Z,7.87
2018-05-10T03:36:13.170Z,7.20
2018-05-10T03:38:40.622Z,7.80
2018-05-10T03:41:08.036Z,7.30
2018-05-10T03:43:37.386Z,7.77
2018-05-10T03:46:05.717Z,8.83
2018-05-10T03:48:33.160Z,7.13
2018-05-10T03:51:01.473Z,7.60
2018-05-10T03:53:30.801Z,6.83
2018-05-10T03:55:58.215Z,7.90
2018-05-10T03:58:25.650Z,6.80
2018-05-10T04:00:53.066Z,7.80
2018-05-10T04:06:28.050Z,7.70
2018-05-10T04:09:07.174Z,7.20
2018-05-10T04:11:34.578Z,6.80
2018-05-10T04:14:02.025Z,7.87
2018-05-10T04:16:29.457Z,7.63
2018-05-10T04:18:56.905Z,7.33
2018-05-10T04:21:24.310Z,8.23
2018-05-10T04:23:51.745Z,8.47
2018-05-10T04:26:19.177Z,7.93
2018-05-10T04:28:46.593Z,10.30
2018-05-10T04:31:14.034Z,7.77
2018-05-10T04:33:41.446Z,8.07
2018-05-10T04:36:08.897Z,7.77
2018-05-10T04:38:36.314Z,9.27
2018-05-10T04:41:03.749Z,8.80
2018-05-10T04:43:31.187Z,6.77
2018-05-10T04:45:58.962Z,7.00
2018-05-10T04:48:26.381Z,7.00
2018-05-10T04:50:53.827Z,6.83
2018-05-10T04:53:22.241Z,7.70
2018-05-10T04:55:49.679Z,6.90
2018-05-10T04:58:17.091Z,6.73
2018-05-10T05:00:44.527Z,6.20
2018-05-10T05:03:11.952Z,7.60
2018-05-10T05:05:39.406Z,7.73
2018-05-10T05:08:06.815Z,7.40
2018-05-10T05:10:34.241Z,6.93
2018-05-10T05:13:02.633Z,7.80
2018-05-10T05:15:30.067Z,7.53
2018-05-10T05:17:57.506Z,7.97
2018-05-10T05:20:25.985Z,8.70
2018-05-10T05:22:53.345Z,6.87
2018-05-10T05:25:20.757Z,9.00
2018-05-10T05:27:48.194Z,8.20
2018-05-10T05:30:15.609Z,8.57
2018-05-10T05:32:43.106Z,7.73
2018-05-10T05:35:10.488Z,8.00
2018-05-10T05:37:37.930Z,6.73
2018-05-10T05:40:05.359Z,9.90
2018-05-10T05:42:32.810Z,8.00
2018-05-10T05:45:00.229Z,6.63
2018-05-10T05:47:27.674Z,8.20
2018-05-10T05:49:56.094Z,6.40
2018-05-10T05:52:23.541Z,6.80
2018-05-10T05:54:50.963Z,7.00
2018-05-10T05:57:18.490Z,6.77
2018-05-10T05:59:45.898Z,6.40
2018-05-10T06:02:13.310Z,5.70
2018-05-10T06:04:40.757Z,5.97
2018-05-10T06:07:08.177Z,7.17
2018-05-10T06:09:35.610Z,6.67
2018-05-10T06:12:03.023Z,6.23
2018-05-10T06:14:30.461Z,6.53
2018-05-10T06:16:58.837Z,7.73
2018-05-10T06:19:26.285Z,6.63
2018-05-10T06:21:53.701Z,6.93
2018-05-10T06:24:21.142Z,7.17
2018-05-10T06:26:48.562Z,7.27
2018-05-10T06:29:16.008Z,7.00
2018-05-10T06:31:43.428Z,7.10
2018-05-10T06:34:11.799Z,6.73
2018-05-10T06:36:39.206Z,6.50
2018-05-10T06:39:06.662Z,6.57
2018-05-10T06:41:34.094Z,7.80
2018-05-10T06:44:01.499Z,7.23
2018-05-10T06:46:28.938Z,7.23
2018-05-10T06:48:56.367Z,7.70
2018-05-10T06:51:23.807Z,8.20
2018-05-10T06:53:51.232Z,6.93
2018-05-10T06:56:19.622Z,7.23
2018-05-10T06:58:50.499Z,7.87
2018-05-10T07:01:17.942Z,7.17
2018-05-10T07:03:45.367Z,7.13
2018-05-10T07:06:12.811Z,7.37
2018-05-10T07:08:40.218Z,6.93
2018-05-10T07:11:08.657Z,7.27
2018-05-10T07:13:37.014Z,8.17
2018-05-10T07:16:05.346Z,7.60
2018-05-10T07:18:32.757Z,8.60
2018-05-10T07:21:00.207Z,8.13
2018-05-10T07:23:27.632Z,8.73
2018-05-10T07:25:55.107Z,8.30
2018-05-10T07:28:22.518Z,8.60
2018-05-10T07:30:49.934Z,9.70
2018-05-10T07:33:17.390Z,8.73
2018-05-10T07:35:44.812Z,8.93
2018-05-10T07:38:12.261Z,9.20
2018-05-10T07:40:39.696Z,8.47
2018-05-10T07:43:08.149Z,9.70
2018-05-10T07:45:35.561Z,9.63
2018-05-10T07:48:03.025Z,9.70
2018-05-10T07:50:31.410Z,9.27
2018-05-10T07:52:58.858Z,9.17
2018-05-10T07:55:26.283Z,8.80
2018-05-10T07:57:55.662Z,10.53
2018-05-10T08:00:24.026Z,9.97
2018-05-10T08:02:51.475Z,8.50
2018-05-10T08:05:18.893Z,9.77
2018-05-10T08:07:46.359Z,9.20
2018-05-10T08:10:14.798Z,9.17
2018-05-10T08:12:42.184Z,8.67
2018-05-10T08:15:10.625Z,10.80
2018-05-10T08:17:38.042Z,10.23
2018-05-10T08:20:05.488Z,9.10
2018-05-10T08:22:33.911Z,9.30
2018-05-10T08:25:02.290Z,8.87
2018-05-10T08:27:52.429Z,9.10
2018-05-10T08:30:20.947Z,8.37
2018-05-10T08:32:49.313Z,8.77
2018-05-10T08:35:16.755Z,9.57
2018-05-10T08:37:44.182Z,8.90
2018-05-10T08:40:11.617Z,9.50
2018-05-10T08:42:39.042Z,8.47
2018-05-10T08:45:06.508Z,9.43
2018-05-10T08:47:33.915Z,8.90
2018-05-10T08:50:01.358Z,8.53
2018-05-10T08:52:28.770Z,9.83
2018-05-10T08:54:56.212Z,7.93
2018-05-10T08:57:23.633Z,9.17
2018-05-10T08:59:51.093Z,8.30
2018-05-10T09:02:18.500Z,8.50
2018-05-10T09:04:45.918Z,10.10
2018-05-10T09:07:13.358Z,9.20
2018-05-10T09:09:40.774Z,8.73
2018-05-10T09:12:08.223Z,8.80
2018-05-10T09:14:35.637Z,9.57
2018-05-10T09:17:03.097Z,9.30
2018-05-10T09:19:30.517Z,9.93
2018-05-10T09:21:57.961Z,9.10
2018-05-10T09:24:25.382Z,8.30
2018-05-10T09:26:52.826Z,8.50
2018-05-10T09:29:20.242Z,8.90
2018-05-10T09:31:47.686Z,7.93
2018-05-10T09:34:15.105Z,10.00
2018-05-10T09:36:42.550Z,9.07
2018-05-10T09:39:10.057Z,8.83
2018-05-10T09:41:37.422Z,9.40
2018-05-10T09:44:04.855Z,9.60
2018-05-10T09:46:32.275Z,8.93
2018-05-10T09:48:59.718Z,9.50
2018-05-10T09:51:27.171Z,9.30
2018-05-10T09:53:54.602Z,8.93
2018-05-10T09:56:22.958Z,8.60
2018-05-10T09:58:52.464Z,9.40
2018-05-10T10:01:33.882Z,9.87
2018-05-10T10:04:01.446Z,8.83
2018-05-10T10:06:28.861Z,9.40
2018-05-10T10:08:57.249Z,9.30
2018-05-10T10:11:26.631Z,9.17
2018-05-10T10:13:54.078Z,9.30
2018-05-10T10:16:21.502Z,8.77
2018-05-10T10:18:48.961Z,8.87
2018-05-10T10:21:16.374Z,9.37
2018-05-10T10:23:43.822Z,10.00
2018-05-10T10:26:12.208Z,9.43
2018-05-10T10:28:39.649Z,8.70
2018-05-10T10:31:07.073Z,9.90
2018-05-10T10:33:34.532Z,9.07
2018-05-10T10:36:01.942Z,9.13
2018-05-10T10:38:29.395Z,7.77
2018-05-10T10:40:56.822Z,8.83
2018-05-10T10:43:24.230Z,8.23
2018-05-10T10:45:51.677Z,9.97
2018-05-10T10:48:19.106Z,8.63
2018-05-10T10:50:46.564Z,9.00
2018-05-10T10:53:14.883Z,9.60
2018-05-10T10:55:42.337Z,9.30
2018-05-10T10:58:10.762Z,8.10
2018-05-10T11:00:38.215Z,11.17
2018-05-10T11:03:06.598Z,9.30
2018-05-10T11:05:36.035Z,10.00
2018-05-10T11:08:03.458Z,9.20
2018-05-10T11:10:30.906Z,7.93
2018-05-10T11:12:58.322Z,9.00
2018-05-10T11:15:25.774Z,8.93
2018-05-10T11:17:53.198Z,9.40
2018-05-10T11:20:20.645Z,9.27
2018-05-10T11:22:48.070Z,8.73
2018-05-10T11:25:15.485Z,8.90
2018-05-10T11:27:45.691Z,9.50
2018-05-10T11:30:13.103Z,9.30
2018-05-10T11:32:41.526Z,8.80
2018-05-10T11:35:08.953Z,8.57
2018-05-10T11:37:36.394Z,9.27
2018-05-10T11:40:03.805Z,8.20
2018-05-10T11:42:31.249Z,9.50
2018-05-10T11:44:58.883Z,9.73
2018-05-10T11:47:26.337Z,8.43
2018-05-10T11:49:55.671Z,10.20
2018-05-10T11:52:23.555Z,9.20
2018-05-10T11:54:50.989Z,8.50
2018-05-10T11:57:18.449Z,8.80
2018-05-10T11:59:45.861Z,9.13
2018-05-10T12:02:13.310Z,10.20
2018-05-10T12:04:40.730Z,9.50
2018-05-10T12:07:09.114Z,9.90
2018-05-10T12:09:36.532Z,10.47
2018-05-10T12:12:03.981Z,11.20
2018-05-10T12:14:33.426Z,11.43
2018-05-10T12:17:00.856Z,14.00
2018-05-10T12:19:29.202Z,13.93
2018-05-10T12:21:56.627Z,15.17
2018-05-10T12:24:24.090Z,14.50
2018-05-10T12:26:51.506Z,13.50
2018-05-10T12:29:18.949Z,10.70
2018-05-10T12:31:46.372Z,13.60
2018-05-10T12:34:13.812Z,14.97
2018-05-10T12:36:41.246Z,10.90
2018-05-10T12:39:09.626Z,14.93
2018-05-10T12:41:37.089Z,16.07
2018-05-10T12:44:05.462Z,17.30
2018-05-10T12:46:32.965Z,14.20
2018-05-10T12:49:00.418Z,14.60
2018-05-10T12:51:27.833Z,15.00
2018-05-10T12:53:55.295Z,16.47
2018-05-10T12:56:22.800Z,19.57
2018-05-10T12:58:50.187Z,17.83
2018-05-10T13:01:17.609Z,16.67
2018-05-10T13:03:45.066Z,17.63
2018-05-10T13:06:12.490Z,19.20
2018-05-10T13:08:39.911Z,18.90
2018-05-10T13:11:09.334Z,18.90
2018-05-10T13:13:36.761Z,16.20
2018-05-10T13:16:04.237Z,15.00
2018-05-10T13:18:32.539Z,13.90
2018-05-10T13:20:59.982Z,13.93
2018-05-10T13:23:27.405Z,16.13
2018-05-10T13:25:54.854Z,12.00
2018-05-10T13:28:22.278Z,11.60
2018-05-10T13:30:49.736Z,12.70
2018-05-10T13:33:18.142Z,18.10
2018-05-10T13:35:45.584Z,33.67
2018-05-10T13:38:13.010Z,38.23
2018-05-10T13:40:40.463Z,43.40
2018-05-10T13:43:07.881Z,41.33
2018-05-10T13:45:35.334Z,40.20
2018-05-10T13:48:02.759Z,41.37
2018-05-10T13:50:30.211Z,36.50
2018-05-10T13:52:57.785Z,40.83
2018-05-10T13:55:25.099Z,41.80
2018-05-10T13:57:52.527Z,30.27
2018-05-10T14:00:19.957Z,21.67
2018-05-10T14:02:48.391Z,21.23
2018-05-10T14:05:15.806Z,19.30
2018-05-10T14:07:43.258Z,20.00
2018-05-10T14:10:10.694Z,22.03
2018-05-10T14:12:38.150Z,17.83
2018-05-10T14:15:05.591Z,16.50
2018-05-10T14:17:33.036Z,15.77
2018-05-10T14:20:00.461Z,16.63
2018-05-10T14:22:27.910Z,13.30
2018-05-10T14:24:55.349Z,12.17
2018-05-10T14:27:22.790Z,12.50
2018-05-10T14:29:50.211Z,11.30
2018-05-10T14:32:17.696Z,13.10
2018-05-10T14:34:45.090Z,12.70
2018-05-10T14:37:12.547Z,13.23
2018-05-10T14:39:40.919Z,15.23
2018-05-10T14:42:08.352Z,12.67
2018-05-10T14:44:35.810Z,14.40
2018-05-10T14:47:03.230Z,14.20
2018-05-10T14:49:30.679Z,15.60
2018-05-10T14:51:58.098Z,15.57
2018-05-10T14:54:26.509Z,16.83
2018-05-10T14:56:53.942Z,18.60
2018-05-10T14:59:21.398Z,22.40
2018-05-10T15:01:48.822Z,30.87
2018-05-10T15:04:16.277Z,31.03
2018-05-10T15:06:43.691Z,35.43
2018-05-10T15:09:11.146Z,37.40
2018-05-10T15:11:38.585Z,38.50
2018-05-10T15:14:06.030Z,37.83
2018-05-10T15:16:34.421Z,42.20
2018-05-10T15:19:01.869Z,44.40
2018-05-10T15:21:29.295Z,47.93
2018-05-10T15:23:56.752Z,55.20
2018-05-10T15:26:24.199Z,55.60
2018-05-10T15:28:51.622Z,56.47
2018-05-10T15:31:19.070Z,62.13
2018-05-10T15:33:47.430Z,63.90
2018-05-10T15:36:14.878Z,65.70
2018-05-10T15:38:42.347Z,67.50
2018-05-10T15:41:09.791Z,70.80
2018-05-10T15:43:37.222Z,71.07
2018-05-10T15:46:05.573Z,66.73
2018-05-10T15:48:32.990Z,69.20
2018-05-10T15:51:00.444Z,70.97
2018-05-10T15:53:27.871Z,64.60
2018-05-10T15:55:55.318Z,66.67
2018-05-10T15:58:22.743Z,69.13
2018-05-10T16:00:50.192Z,72.53
2018-05-10T16:03:17.613Z,70.90
2018-05-10T16:05:45.041Z,71.90
2018-05-10T16:08:13.491Z,69.70
2018-05-10T16:10:40.907Z,70.33
2018-05-10T16:13:09.317Z,65.50
2018-05-10T16:15:36.770Z,67.03
2018-05-10T16:18:04.821Z,64.77
2018-05-10T16:20:32.265Z,58.77
2018-05-10T16:22:59.714Z,64.70
2018-05-10T16:25:27.131Z,60.50
2018-05-10T16:27:54.573Z,58.77
2018-05-10T16:30:22.014Z,62.10
2018-05-10T16:32:50.415Z,60.70
2018-05-10T16:35:17.825Z,55.93
2018-05-10T16:37:47.261Z,58.20
2018-05-10T16:40:15.612Z,58.43
2018-05-10T16:42:43.070Z,54.63
2018-05-10T16:45:11.289Z,53.53
2018-05-10T16:47:38.726Z,47.10
2018-05-10T16:50:06.141Z,43.37
2018-05-10T16:52:33.590Z,47.80
2018-05-10T16:55:02.000Z,47.17
2018-05-10T16:57:29.463Z,46.90
2018-05-10T16:59:57.306Z,42.57
2018-05-10T17:02:25.098Z,38.07
2018-05-10T17:04:53.483Z,38.80
2018-05-10T17:07:20.911Z,39.30
2018-05-10T17:09:48.358Z,36.03
2018-05-10T17:12:15.777Z,33.63
2018-05-10T17:14:43.223Z,35.13
2018-05-10T17:17:10.661Z,35.27
2018-05-10T17:19:38.854Z,33.00
2018-05-10T17:22:06.286Z,36.30
2018-05-10T17:24:33.736Z,33.57
2018-05-10T17:27:01.156Z,33.23
2018-05-10T17:29:29.178Z,34.03
2018-05-10T17:31:56.606Z,36.47
2018-05-10T17:34:25.022Z,33.40
2018-05-10T17:36:52.450Z,33.07
2018-05-10T17:39:19.894Z,32.47
2018-05-10T17:41:47.316Z,32.00
2018-05-10T17:44:14.763Z,33.57
2018-05-10T17:46:42.226Z,32.27
2018-05-10T17:49:09.649Z,30.40
2018-05-10T17:51:37.102Z,30.73
2018-05-10T17:54:04.529Z,28.57
2018-05-10T17:56:31.986Z,28.13
2018-05-10T17:58:59.413Z,25.17
2018-05-10T18:01:26.853Z,27.83
2018-05-10T18:03:54.271Z,24.30
2018-05-10T18:06:21.732Z,25.70
2018-05-10T18:08:49.186Z,22.23
2018-05-10T18:11:17.564Z,21.00
2018-05-10T18:13:45.066Z,17.03
2018-05-10T18:16:14.475Z,17.30
2018-05-10T18:18:45.181Z,14.63
2018-05-10T18:21:12.636Z,14.43
2018-05-10T18:23:40.999Z,13.93
2018-05-10T18:26:09.401Z,11.97
2018-05-10T18:28:36.854Z,12.77
2018-05-10T18:31:04.291Z,12.80
2018-05-10T18:33:31.746Z,11.20
2018-05-10T18:36:04.114Z,11.30
2018-05-10T18:38:32.456Z,9.67
2018-05-10T18:40:59.873Z,9.13
2018-05-10T18:43:27.317Z,8.87
2018-05-10T18:45:54.738Z,9.87
2018-05-10T18:48:22.198Z,8.63
2018-05-10T18:50:50.574Z,8.20
2018-05-10T18:53:18.026Z,8.93
2018-05-10T18:55:45.465Z,8.03
2018-05-10T18:58:12.917Z,8.00
2018-05-10T19:00:40.341Z,8.37
2018-05-10T19:03:09.709Z,11.67
2018-05-10T19:05:37.145Z,6.97
2018-05-10T19:08:07.711Z,8.10
2018-05-10T19:10:35.163Z,8.47
2018-05-10T19:13:02.574Z,9.00
2018-05-10T19:15:30.051Z,6.80
2018-05-10T19:17:57.447Z,7.47
2018-05-10T19:20:24.902Z,7.93
2018-05-10T19:22:52.307Z,6.70
2018-05-10T19:25:19.755Z,7.60
2018-05-10T19:27:47.177Z,7.20
2018-05-10T19:30:14.640Z,7.43
2018-05-10T19:32:42.071Z,7.13
2018-05-10T19:35:09.491Z,7.10
2018-05-10T19:37:36.943Z,6.80
2018-05-10T19:40:04.355Z,7.60
2018-05-10T19:42:31.791Z,5.73
2018-05-10T19:44:59.206Z,6.77
2018-05-10T19:47:26.666Z,6.70
2018-05-10T19:49:54.086Z,7.17
2018-05-10T19:52:22.458Z,6.40
2018-05-10T19:54:51.822Z,8.70
2018-05-10T19:57:19.265Z,6.07
2018-05-10T19:59:50.001Z,6.87
2018-05-10T20:02:17.465Z,6.23
2018-05-10T20:04:44.882Z,7.03
2018-05-10T20:07:12.334Z,7.30
2018-05-10T20:09:39.741Z,5.77
2018-05-10T20:12:07.193Z,6.57
2018-05-10T20:14:34.615Z,5.60
2018-05-10T20:17:02.049Z,6.87
2018-05-10T20:19:29.475Z,5.97
2018-05-10T20:21:56.898Z,7.10
2018-05-10T20:24:24.349Z,6.53
2018-05-10T20:26:51.778Z,8.93
2018-05-10T20:29:19.228Z,7.47
2018-05-10T20:31:46.667Z,7.20
2018-05-10T20:34:14.112Z,8.30
2018-05-10T20:36:42.439Z,6.97
2018-05-10T20:39:09.886Z,8.10
2018-05-10T20:41:37.401Z,7.10
2018-05-10T20:44:04.789Z,7.67
2018-05-10T20:46:32.214Z,7.63
2018-05-10T20:48:59.670Z,7.53
2018-05-10T20:51:27.105Z,8.83
2018-05-10T20:53:54.548Z,6.77
2018-05-10T20:56:21.954Z,7.63
2018-05-10T20:58:49.415Z,8.10
2018-05-10T21:01:16.846Z,7.13
2018-05-10T21:03:44.420Z,6.80
2018-05-10T21:06:11.698Z,7.20
2018-05-10T21:08:39.118Z,6.70
2018-05-10T21:11:06.570Z,7.30
2018-05-10T21:13:33.993Z,7.83
2018-05-10T21:16:03.364Z,6.70
2018-05-10T21:18:30.786Z,6.90
2018-05-10T21:20:58.246Z,6.40
2018-05-10T21:23:26.632Z,6.00
2018-05-10T21:25:54.404Z,5.97
2018-05-10T21:28:21.832Z,6.67
2018-05-10T21:30:49.274Z,6.70
2018-05-10T21:33:18.599Z,6.20
2018-05-10T21:35:46.044Z,5.67
2018-05-10T21:38:13.458Z,6.07
2018-05-10T21:40:40.916Z,6.20
2018-05-10T21:43:08.334Z,5.10
2018-05-10T21:45:36.691Z,5.40
2018-05-10T21:48:04.590Z,5.53
2018-05-10T21:50:32.056Z,6.30
2018-05-10T21:53:00.419Z,6.03
2018-05-10T21:55:29.835Z,5.47
2018-05-10T21:57:57.286Z,6.30
2018-05-10T22:00:25.651Z,5.23
2018-05-10T22:02:54.056Z,4.50
2018-05-10T22:05:21.473Z,5.80
2018-05-10T22:07:49.882Z,4.80
2018-05-10T22:10:18.214Z,5.03
2018-05-10T22:12:45.666Z,5.87
2018-05-10T22:15:13.082Z,5.30
2018-05-10T22:17:40.525Z,5.40
2018-05-10T22:20:07.946Z,4.70
2018-05-10T22:22:35.412Z,4.67
2018-05-10T22:25:02.832Z,4.77
2018-05-10T22:27:31.221Z,4.90
2018-05-10T22:29:58.673Z,5.40
2018-05-10T22:32:26.106Z,4.70
2018-05-10T22:34:53.523Z,5.30
2018-05-10T22:37:21.130Z,4.33
2018-05-10T22:39:48.561Z,4.07
2018-05-10T22:42:16.909Z,4.13
2018-05-10T22:44:44.358Z,4.80
2018-05-10T22:47:11.774Z,4.40
2018-05-10T22:49:39.237Z,4.60
2018-05-10T22:52:06.650Z,4.80
2018-05-10T22:54:34.092Z,3.90
2018-05-10T22:57:01.526Z,4.53
2018-05-10T22:59:29.716Z,4.73
2018-05-10T23:01:57.126Z,4.03
2018-05-10T23:04:24.566Z,4.13
2018-05-10T23:06:52.920Z,4.50
2018-05-10T23:09:20.372Z,4.50
2018-05-10T23:11:47.781Z,4.30
2018-05-10T23:14:15.269Z,3.80
2018-05-10T23:16:42.681Z,4.10
2018-05-10T23:19:10.138Z,4.40
2018-05-10T23:21:37.556Z,3.90
2018-05-10T23:24:05.769Z,4.47
2018-05-10T23:26:33.223Z,4.53
2018-05-10T23:29:00.641Z,3.10
2018-05-10T23:31:29.046Z,4.47
2018-05-10T23:33:56.478Z,4.30
2018-05-10T23:36:23.914Z,4.37
2018-05-10T23:38:51.330Z,4.57
2018-05-10T23:41:18.786Z,4.40
2018-05-10T23:43:46.206Z,3.83
2018-05-10T23:46:13.654Z,5.27
2018-05-10T23:48:41.062Z,4.30
2018-05-10T23:51:08.508Z,5.00
2018-05-10T23:53:35.947Z,5.10
2018-05-10T23:56:03.381Z,5.00
2018-05-10T23:58:30.804Z,5.00
